createdAt,value
2022-09-04T00:00:42.386Z,1015.38
2022-09-04T00:01:45.178Z,1015.38
2022-09-04T00:02:42.343Z,1015.36
2022-09-04T00:03:42.472Z,1015.34
2022-09-04T00:04:42.485Z,1015.40
2022-09-04T00:05:42.344Z,1015.43
2022-09-04T00:06:42.345Z,1015.39
2022-09-04T00:07:42.344Z,1015.42
2022-09-04T00:08:42.346Z,1015.44
2022-09-04T00:09:42.349Z,1015.42
2022-09-04T00:10:42.347Z,1015.40
2022-09-04T00:11:42.354Z,1015.39
2022-09-04T00:12:42.352Z,1015.39
2022-09-04T00:13:42.355Z,1015.38
2022-09-04T00:14:42.351Z,1015.35
2022-09-04T00:15:42.356Z,1015.40
2022-09-04T00:16:42.453Z,1015.37
2022-09-04T00:17:42.356Z,1015.34
2022-09-04T00:18:42.355Z,1015.41
2022-09-04T00:19:42.360Z,1015.35
2022-09-04T00:20:42.357Z,1015.34
2022-09-04T00:21:42.360Z,1015.38
2022-09-04T00:22:42.361Z,1015.38
2022-09-04T00:23:42.362Z,1015.42
2022-09-04T00:24:42.362Z,1015.38
2022-09-04T00:25:42.365Z,1015.41
2022-09-04T00:26:42.363Z,1015.43
2022-09-04T00:27:42.365Z,1015.41
2022-09-04T00:28:42.367Z,1015.39
2022-09-04T00:29:42.365Z,1015.41
2022-09-04T00:30:42.437Z,1015.40
2022-09-04T00:31:42.374Z,1015.38
2022-09-04T00:32:42.368Z,1015.38
2022-09-04T00:33:42.373Z,1015.40
2022-09-04T00:34:42.370Z,1015.40
2022-09-04T00:35:42.374Z,1015.38
2022-09-04T00:36:44.833Z,1015.39
2022-09-04T00:37:42.374Z,1015.41
2022-09-04T00:38:42.381Z,1015.35
2022-09-04T00:39:42.447Z,1015.39
2022-09-04T00:40:42.379Z,1015.34
2022-09-04T00:41:42.373Z,1015.35
2022-09-04T00:42:42.380Z,1015.35
2022-09-04T00:43:42.381Z,1015.37
2022-09-04T00:44:42.379Z,1015.39
2022-09-04T00:45:42.449Z,1015.40
2022-09-04T00:46:42.380Z,1015.37
2022-09-04T00:47:42.383Z,1015.39
2022-09-04T00:48:42.381Z,1015.44
2022-09-04T00:49:42.386Z,1015.44
2022-09-04T00:50:42.394Z,1015.43
2022-09-04T00:51:42.387Z,1015.48
2022-09-04T00:52:42.386Z,1015.48
2022-09-04T00:53:42.390Z,1015.46
2022-09-04T00:54:42.388Z,1015.48
2022-09-04T00:55:42.389Z,1015.51
2022-09-04T00:56:42.390Z,1015.51
2022-09-04T00:57:42.400Z,1015.53
2022-09-04T00:58:42.395Z,1015.52
2022-09-04T00:59:42.396Z,1015.53
2022-09-04T01:00:42.477Z,1015.54
2022-09-04T01:01:42.535Z,1015.52
2022-09-04T01:02:42.397Z,1015.53
2022-09-04T01:03:42.406Z,1015.56
2022-09-04T01:04:42.403Z,1015.52
2022-09-04T01:05:42.400Z,1015.51
2022-09-04T01:06:42.399Z,1015.52
2022-09-04T01:07:42.398Z,1015.55
2022-09-04T01:08:42.397Z,1015.55
2022-09-04T01:09:42.405Z,1015.59
2022-09-04T01:10:42.409Z,1015.56
2022-09-04T01:11:42.403Z,1015.57
2022-09-04T01:12:42.402Z,1015.63
2022-09-04T01:13:42.404Z,1015.64
2022-09-04T01:14:42.404Z,1015.64
2022-09-04T01:15:42.408Z,1015.63
2022-09-04T01:16:42.478Z,1015.63
2022-09-04T01:17:42.737Z,1015.70
2022-09-04T01:18:42.410Z,1015.67
2022-09-04T01:19:42.407Z,1015.69
2022-09-04T01:20:42.412Z,1015.66
2022-09-04T01:21:42.413Z,1015.69
2022-09-04T01:22:42.412Z,1015.69
2022-09-04T01:23:42.414Z,1015.68
2022-09-04T01:24:42.413Z,1015.67
2022-09-04T01:25:42.416Z,1015.69
2022-09-04T01:26:42.416Z,1015.68
2022-09-04T01:27:42.421Z,1015.67
2022-09-04T01:28:42.420Z,1015.70
2022-09-04T01:29:42.418Z,1015.70
2022-09-04T01:30:42.418Z,1015.67
2022-09-04T01:31:42.491Z,1015.68
2022-09-04T01:32:42.419Z,1015.64
2022-09-04T01:33:42.424Z,1015.64
2022-09-04T01:34:42.419Z,1015.67
2022-09-04T01:35:42.421Z,1015.63
2022-09-04T01:36:42.430Z,1015.61
2022-09-04T01:37:42.426Z,1015.64
2022-09-04T01:38:42.426Z,1015.66
2022-09-04T01:39:42.480Z,1015.71
2022-09-04T01:40:42.424Z,1015.69
2022-09-04T01:41:42.426Z,1015.71
2022-09-04T01:42:42.424Z,1015.68
2022-09-04T01:43:42.431Z,1015.70
2022-09-04T01:44:42.432Z,1015.71
2022-09-04T01:45:42.492Z,1015.68
2022-09-04T01:46:42.430Z,1015.71
2022-09-04T01:47:42.435Z,1015.72
2022-09-04T01:48:42.436Z,1015.70
2022-09-04T01:49:42.436Z,1015.66
2022-09-04T01:50:42.435Z,1015.67
2022-09-04T01:51:42.435Z,1015.68
2022-09-04T01:52:42.432Z,1015.70
2022-09-04T01:53:42.440Z,1015.65
2022-09-04T01:54:42.437Z,1015.69
2022-09-04T01:55:42.435Z,1015.67
2022-09-04T01:56:42.433Z,1015.64
2022-09-04T01:57:42.438Z,1015.64
2022-09-04T01:58:42.447Z,1015.67
2022-09-04T01:59:42.439Z,1015.67
2022-09-04T02:00:42.550Z,1015.65
2022-09-04T02:01:42.497Z,1015.66
2022-09-04T02:02:42.439Z,1015.66
2022-09-04T02:03:42.448Z,1015.70
2022-09-04T02:04:42.441Z,1015.63
2022-09-04T02:05:42.457Z,1015.68
2022-09-04T02:06:42.445Z,1015.71
2022-09-04T02:07:42.445Z,1015.67
2022-09-04T02:08:42.448Z,1015.69
2022-09-04T02:09:42.446Z,1015.67
2022-09-04T02:10:42.447Z,1015.62
2022-09-04T02:11:42.454Z,1015.62
2022-09-04T02:12:42.463Z,1015.62
2022-09-04T02:13:42.448Z,1015.65
2022-09-04T02:14:42.454Z,1015.64
2022-09-04T02:15:42.454Z,1015.65
2022-09-04T02:16:42.486Z,1015.64
2022-09-04T02:17:42.459Z,1015.64
2022-09-04T02:18:42.448Z,1015.61
2022-09-04T02:19:42.456Z,1015.62
2022-09-04T02:20:42.455Z,1015.57
2022-09-04T02:21:42.455Z,1015.60
2022-09-04T02:22:42.457Z,1015.60
2022-09-04T02:23:42.463Z,1015.64
2022-09-04T02:24:42.457Z,1015.61
2022-09-04T02:25:42.458Z,1015.62
2022-09-04T02:26:42.457Z,1015.61
2022-09-04T02:27:42.462Z,1015.64
2022-09-04T02:28:42.458Z,1015.63
2022-09-04T02:29:42.461Z,1015.60
2022-09-04T02:30:42.468Z,1015.63
2022-09-04T02:31:42.499Z,1015.62
2022-09-04T02:32:42.462Z,1015.61
2022-09-04T02:33:42.464Z,1015.62
2022-09-04T02:34:42.468Z,1015.66
2022-09-04T02:35:42.462Z,1015.62
2022-09-04T02:36:42.462Z,1015.62
2022-09-04T02:37:42.467Z,1015.63
2022-09-04T02:38:42.463Z,1015.63
2022-09-04T02:39:42.534Z,1015.62
2022-09-04T02:40:42.464Z,1015.61
2022-09-04T02:41:42.467Z,1015.59
2022-09-04T02:42:42.471Z,1015.60
2022-09-04T02:43:42.472Z,1015.66
2022-09-04T02:44:42.471Z,1015.62
2022-09-04T02:45:42.474Z,1015.61
2022-09-04T02:46:43.369Z,1015.65
2022-09-04T02:47:42.474Z,1015.64
2022-09-04T02:48:42.469Z,1015.66
2022-09-04T02:49:42.477Z,1015.64
2022-09-04T02:50:42.474Z,1015.66
2022-09-04T02:51:42.479Z,1015.68
2022-09-04T02:52:42.478Z,1015.67
2022-09-04T02:53:42.483Z,1015.66
2022-09-04T02:54:42.478Z,1015.65
2022-09-04T02:55:42.482Z,1015.65
2022-09-04T02:56:42.475Z,1015.63
2022-09-04T02:57:42.485Z,1015.64
2022-09-04T02:58:42.481Z,1015.65
2022-09-04T02:59:42.478Z,1015.66
2022-09-04T03:00:42.571Z,1015.66
2022-09-04T03:01:45.418Z,1015.66
2022-09-04T03:02:42.482Z,1015.63
2022-09-04T03:03:42.480Z,1015.66
2022-09-04T03:04:42.487Z,1015.66
2022-09-04T03:05:42.485Z,1015.63
2022-09-04T03:06:42.485Z,1015.63
2022-09-04T03:07:42.486Z,1015.68
2022-09-04T03:08:42.483Z,1015.65
2022-09-04T03:09:42.489Z,1015.68
2022-09-04T03:10:42.488Z,1015.68
2022-09-04T03:11:42.488Z,1015.66
2022-09-04T03:12:42.489Z,1015.69
2022-09-04T03:13:42.491Z,1015.65
2022-09-04T03:14:42.493Z,1015.67
2022-09-04T03:15:42.490Z,1015.66
2022-09-04T03:16:42.490Z,1015.66
2022-09-04T03:17:42.497Z,1015.66
2022-09-04T03:18:42.492Z,1015.66
2022-09-04T03:19:42.496Z,1015.68
2022-09-04T03:20:42.496Z,1015.66
2022-09-04T03:21:42.497Z,1015.72
2022-09-04T03:22:42.498Z,1015.62
2022-09-04T03:23:42.495Z,1015.63
2022-09-04T03:24:42.496Z,1015.65
2022-09-04T03:25:42.494Z,1015.66
2022-09-04T03:26:42.498Z,1015.69
2022-09-04T03:27:42.499Z,1015.65
2022-09-04T03:28:42.499Z,1015.65
2022-09-04T03:29:42.500Z,1015.65
2022-09-04T03:30:42.502Z,1015.63
2022-09-04T03:31:42.565Z,1015.61
2022-09-04T03:32:42.505Z,1015.62
2022-09-04T03:33:42.500Z,1015.63
2022-09-04T03:34:42.511Z,1015.67
2022-09-04T03:35:42.504Z,1015.67
2022-09-04T03:36:42.504Z,1015.69
2022-09-04T03:37:42.504Z,1015.67
2022-09-04T03:38:42.502Z,1015.71
2022-09-04T03:39:42.559Z,1015.71
2022-09-04T03:40:42.508Z,1015.72
2022-09-04T03:41:42.506Z,1015.70
2022-09-04T03:42:42.508Z,1015.67
2022-09-04T03:43:42.505Z,1015.72
2022-09-04T03:44:42.509Z,1015.71
2022-09-04T03:45:42.517Z,1015.74
2022-09-04T03:46:42.567Z,1015.74
2022-09-04T03:47:42.506Z,1015.77
2022-09-04T03:48:42.511Z,1015.77
2022-09-04T03:49:42.508Z,1015.77
2022-09-04T03:50:42.513Z,1015.86
2022-09-04T03:51:42.509Z,1015.86
2022-09-04T03:52:42.516Z,1015.81
2022-09-04T03:53:42.512Z,1015.79
2022-09-04T03:54:42.512Z,1015.80
2022-09-04T03:55:42.514Z,1015.76
2022-09-04T03:56:42.519Z,1015.77
2022-09-04T03:57:42.515Z,1015.76
2022-09-04T03:58:42.559Z,1015.71
2022-09-04T03:59:42.515Z,1015.74
2022-09-04T04:00:42.630Z,1015.80
2022-09-04T04:01:42.520Z,1015.79
2022-09-04T04:02:42.597Z,1015.79
2022-09-04T04:03:42.518Z,1015.83
2022-09-04T04:04:42.525Z,1015.83
2022-09-04T04:05:42.524Z,1015.82
2022-09-04T04:06:42.519Z,1015.81
2022-09-04T04:07:42.521Z,1015.86
2022-09-04T04:08:42.519Z,1015.89
2022-09-04T04:09:42.522Z,1015.89
2022-09-04T04:10:42.521Z,1015.87
2022-09-04T04:11:43.683Z,1015.92
2022-09-04T04:12:42.523Z,1015.90
2022-09-04T04:13:42.520Z,1015.95
2022-09-04T04:14:42.525Z,1015.97
2022-09-04T04:15:42.529Z,1015.96
2022-09-04T04:16:42.563Z,1015.97
2022-09-04T04:17:42.521Z,1015.99
2022-09-04T04:18:42.526Z,1015.97
2022-09-04T04:19:42.529Z,1015.99
2022-09-04T04:20:42.527Z,1015.98
2022-09-04T04:21:42.528Z,1015.97
2022-09-04T04:22:42.531Z,1016.00
2022-09-04T04:23:42.525Z,1016.01
2022-09-04T04:24:42.530Z,1016.05
2022-09-04T04:25:42.531Z,1016.04
2022-09-04T04:26:42.528Z,1016.01
2022-09-04T04:27:42.532Z,1016.01
2022-09-04T04:28:42.531Z,1016.05
2022-09-04T04:29:42.534Z,1016.03
2022-09-04T04:30:42.536Z,1016.03
2022-09-04T04:31:42.614Z,1016.02
2022-09-04T04:32:42.531Z,1016.04
2022-09-04T04:33:42.548Z,1016.03
2022-09-04T04:34:42.537Z,1016.01
2022-09-04T04:35:42.535Z,1016.04
2022-09-04T04:36:42.535Z,1016.04
2022-09-04T04:37:42.536Z,1016.07
2022-09-04T04:38:42.535Z,1016.06
2022-09-04T04:39:42.577Z,1016.07
2022-09-04T04:40:42.533Z,1016.03
2022-09-04T04:41:42.540Z,1016.09
2022-09-04T04:42:42.541Z,1016.08
2022-09-04T04:43:42.534Z,1016.12
2022-09-04T04:44:42.541Z,1016.10
2022-09-04T04:45:42.535Z,1016.06
2022-09-04T04:46:42.639Z,1016.09
2022-09-04T04:47:42.540Z,1016.09
2022-09-04T04:48:42.540Z,1016.17
2022-09-04T04:49:42.539Z,1016.12
2022-09-04T04:50:42.545Z,1016.16
2022-09-04T04:51:42.538Z,1016.15
2022-09-04T04:52:42.543Z,1016.21
2022-09-04T04:53:42.539Z,1016.20
2022-09-04T04:54:42.546Z,1016.27
2022-09-04T04:55:42.544Z,1016.25
2022-09-04T04:56:42.549Z,1016.32
2022-09-04T04:57:42.542Z,1016.26
2022-09-04T04:58:42.543Z,1016.31
2022-09-04T04:59:42.540Z,1016.35
2022-09-04T05:00:42.596Z,1016.34
2022-09-04T05:01:42.708Z,1016.36
2022-09-04T05:02:42.622Z,1016.38
2022-09-04T05:03:42.543Z,1016.37
2022-09-04T05:04:42.551Z,1016.43
2022-09-04T05:05:42.549Z,1016.44
2022-09-04T05:06:42.550Z,1016.50
2022-09-04T05:07:42.547Z,1016.54
2022-09-04T05:08:42.549Z,1016.53
2022-09-04T05:09:42.550Z,1016.56
2022-09-04T05:10:42.557Z,1016.59
2022-09-04T05:11:42.550Z,1016.60
2022-09-04T05:12:42.551Z,1016.58
2022-09-04T05:13:42.556Z,1016.55
2022-09-04T05:14:42.551Z,1016.52
2022-09-04T05:16:05.162Z,1016.58
2022-09-04T05:16:42.582Z,1016.55
2022-09-04T05:17:42.550Z,1016.57
2022-09-04T05:18:42.556Z,1016.55
2022-09-04T05:19:42.562Z,1016.54
2022-09-04T05:20:42.553Z,1016.57
2022-09-04T05:21:42.554Z,1016.61
2022-09-04T05:22:42.558Z,1016.61
2022-09-04T05:23:42.551Z,1016.66
2022-09-04T05:24:42.561Z,1016.67
2022-09-04T05:25:42.555Z,1016.71
2022-09-04T05:26:42.558Z,1016.73
2022-09-04T05:27:42.559Z,1016.74
2022-09-04T05:28:42.556Z,1016.79
2022-09-04T05:29:42.558Z,1016.83
2022-09-04T05:30:42.560Z,1016.82
2022-09-04T05:31:42.619Z,1016.81
2022-09-04T05:32:42.564Z,1016.85
2022-09-04T05:33:42.561Z,1016.90
2022-09-04T05:34:42.559Z,1016.87
2022-09-04T05:35:42.558Z,1016.92
2022-09-04T05:36:42.769Z,1016.95
2022-09-04T05:37:42.559Z,1016.99
2022-09-04T05:38:42.566Z,1017.06
2022-09-04T05:39:42.610Z,1017.04
2022-09-04T05:40:42.563Z,1017.05
2022-09-04T05:41:42.573Z,1017.13
2022-09-04T05:42:42.566Z,1017.08
2022-09-04T05:43:42.565Z,1017.12
2022-09-04T05:44:42.565Z,1017.15
2022-09-04T05:45:42.565Z,1017.18
2022-09-04T05:46:42.667Z,1017.14
2022-09-04T05:47:42.562Z,1017.19
2022-09-04T05:48:42.564Z,1017.14
2022-09-04T05:49:42.565Z,1017.17
2022-09-04T05:50:42.568Z,1017.16
2022-09-04T05:51:42.564Z,1017.20
2022-09-04T05:52:42.565Z,1017.22
2022-09-04T05:53:42.571Z,1017.26
2022-09-04T05:54:42.572Z,1017.27
2022-09-04T05:55:42.571Z,1017.28
2022-09-04T05:56:42.564Z,1017.28
2022-09-04T05:57:42.572Z,1017.32
2022-09-04T05:58:42.570Z,1017.30
2022-09-04T05:59:44.296Z,1017.26
2022-09-04T06:00:42.621Z,1017.28
2022-09-04T06:01:42.607Z,1017.35
2022-09-04T06:02:42.609Z,1017.33
2022-09-04T06:03:42.575Z,1017.36
2022-09-04T06:04:42.575Z,1017.39
2022-09-04T06:05:42.577Z,1017.37
2022-09-04T06:06:42.576Z,1017.37
2022-09-04T06:07:42.572Z,1017.41
2022-09-04T06:08:42.576Z,1017.46
2022-09-04T06:09:42.577Z,1017.46
2022-09-04T06:10:42.576Z,1017.47
2022-09-04T06:11:42.575Z,1017.48
2022-09-04T06:12:42.575Z,1017.49
2022-09-04T06:13:42.576Z,1017.51
2022-09-04T06:14:42.582Z,1017.47
2022-09-04T06:15:42.670Z,1017.48
2022-09-04T06:16:42.577Z,1017.46
2022-09-04T06:17:42.575Z,1017.48
2022-09-04T06:18:42.584Z,1017.51
2022-09-04T06:19:42.579Z,1017.51
2022-09-04T06:20:42.580Z,1017.52
2022-09-04T06:21:42.582Z,1017.51
2022-09-04T06:22:42.580Z,1017.52
2022-09-04T06:23:42.578Z,1017.51
2022-09-04T06:24:42.586Z,1017.53
2022-09-04T06:25:42.589Z,1017.55
2022-09-04T06:26:42.582Z,1017.53
2022-09-04T06:27:42.585Z,1017.59
2022-09-04T06:28:42.585Z,1017.63
2022-09-04T06:29:42.587Z,1017.62
2022-09-04T06:30:42.588Z,1017.69
2022-09-04T06:31:42.666Z,1017.70
2022-09-04T06:32:42.587Z,1017.72
2022-09-04T06:33:42.588Z,1017.75
2022-09-04T06:34:42.597Z,1017.75
2022-09-04T06:35:42.631Z,1017.71
2022-09-04T06:36:42.595Z,1017.65
2022-09-04T06:37:42.591Z,1017.70
2022-09-04T06:38:42.595Z,1017.66
2022-09-04T06:39:42.674Z,1017.63
2022-09-04T06:40:42.594Z,1017.64
2022-09-04T06:41:42.598Z,1017.62
2022-09-04T06:42:42.591Z,1017.68
2022-09-04T06:43:42.600Z,1017.69
2022-09-04T06:44:42.595Z,1017.70
2022-09-04T06:45:42.593Z,1017.72
2022-09-04T06:46:42.696Z,1017.74
2022-09-04T06:47:42.601Z,1017.78
2022-09-04T06:48:42.605Z,1017.73
2022-09-04T06:49:42.600Z,1017.80
2022-09-04T06:50:42.606Z,1017.79
2022-09-04T06:51:42.603Z,1017.78
2022-09-04T06:52:42.604Z,1017.77
2022-09-04T06:53:42.627Z,1017.80
2022-09-04T06:54:42.607Z,1017.71
2022-09-04T06:55:42.620Z,1017.67
2022-09-04T06:56:42.608Z,1017.68
2022-09-04T06:57:42.608Z,1017.73
2022-09-04T06:58:42.614Z,1017.70
2022-09-04T06:59:42.614Z,1017.79
2022-09-04T07:00:42.661Z,1017.81
2022-09-04T07:01:42.728Z,1017.86
2022-09-04T07:02:42.758Z,1017.87
2022-09-04T07:03:42.615Z,1017.90
2022-09-04T07:04:42.623Z,1017.87
2022-09-04T07:05:42.617Z,1017.91
2022-09-04T07:06:42.615Z,1017.87
2022-09-04T07:07:42.620Z,1017.82
2022-09-04T07:08:42.620Z,1017.82
2022-09-04T07:09:42.619Z,1017.82
2022-09-04T07:10:42.626Z,1017.83
2022-09-04T07:11:42.621Z,1017.86
2022-09-04T07:12:42.625Z,1017.90
2022-09-04T07:13:42.633Z,1017.90
2022-09-04T07:14:42.629Z,1017.91
2022-09-04T07:15:42.685Z,1017.94
2022-09-04T07:16:42.638Z,1017.95
2022-09-04T07:17:42.635Z,1017.98
2022-09-04T07:18:42.635Z,1017.96
2022-09-04T07:19:42.639Z,1017.95
2022-09-04T07:20:42.642Z,1017.95
2022-09-04T07:21:42.643Z,1018.00
2022-09-04T07:22:42.644Z,1017.98
2022-09-04T07:23:42.640Z,1018.01
2022-09-04T07:24:42.647Z,1018.04
2022-09-04T07:25:42.649Z,1018.05
2022-09-04T07:26:42.650Z,1018.04
2022-09-04T07:27:42.657Z,1018.04
2022-09-04T07:28:42.653Z,1018.07
2022-09-04T07:29:42.659Z,1018.06
2022-09-04T07:30:42.662Z,1018.02
2022-09-04T07:31:42.697Z,1018.06
2022-09-04T07:32:42.662Z,1018.07
2022-09-04T07:33:42.668Z,1018.10
2022-09-04T07:34:42.668Z,1018.11
2022-09-04T07:35:42.676Z,1018.17
2022-09-04T07:36:42.677Z,1018.22
2022-09-04T07:37:42.677Z,1018.20
2022-09-04T07:38:42.684Z,1018.22
2022-09-04T07:39:42.745Z,1018.24
2022-09-04T07:40:42.684Z,1018.21
2022-09-04T07:41:42.685Z,1018.27
2022-09-04T07:42:42.696Z,1018.27
2022-09-04T07:43:42.691Z,1018.28
2022-09-04T07:44:42.699Z,1018.30
2022-09-04T07:45:42.703Z,1018.33
2022-09-04T07:46:42.792Z,1018.30
2022-09-04T07:47:42.707Z,1018.33
2022-09-04T07:48:42.712Z,1018.37
2022-09-04T07:49:42.714Z,1020.76
2022-09-04T07:50:42.726Z,1027.92
2022-09-04T07:51:42.726Z,1031.01
2022-09-04T07:52:42.733Z,1026.21
2022-09-04T07:53:42.734Z,1018.98
2022-09-04T07:54:42.738Z,1018.39
2022-09-04T07:55:42.744Z,1018.38
2022-09-04T07:56:42.747Z,1018.33
2022-09-04T07:57:42.758Z,1018.35
2022-09-04T07:58:42.754Z,1018.29
2022-09-04T07:59:42.770Z,1018.31
2022-09-04T08:00:42.766Z,1018.80
2022-09-04T08:01:42.918Z,1018.41
2022-09-04T08:02:42.776Z,1018.36
2022-09-04T08:03:54.683Z,1018.33
2022-09-04T08:04:42.861Z,1018.30
2022-09-04T08:05:42.792Z,1018.30
2022-09-04T08:06:42.799Z,1018.32
2022-09-04T08:07:42.801Z,1018.38
2022-09-04T08:08:42.808Z,1018.39
2022-09-04T08:09:42.816Z,1018.40
2022-09-04T08:10:42.818Z,1018.41
2022-09-04T08:11:42.826Z,1018.43
2022-09-04T08:12:42.832Z,1018.46
2022-09-04T08:13:42.830Z,1018.45
2022-09-04T08:14:42.838Z,1018.49
2022-09-04T08:15:43.131Z,1018.50
2022-09-04T08:16:42.849Z,1018.58
2022-09-04T08:17:42.851Z,1018.59
2022-09-04T08:18:42.861Z,1018.65
2022-09-04T08:19:42.865Z,1018.92
2022-09-04T08:20:42.872Z,1019.92
2022-09-04T08:21:42.877Z,1021.00
2022-09-04T08:22:42.880Z,1022.27
2022-09-04T08:23:42.889Z,1023.34
2022-09-04T08:24:42.896Z,1023.69
2022-09-04T08:25:42.899Z,1024.53
2022-09-04T08:26:42.906Z,1026.35
2022-09-04T08:27:44.590Z,1028.18
2022-09-04T08:28:46.031Z,1030.28
2022-09-04T08:29:42.922Z,1031.49
2022-09-04T08:30:42.962Z,1031.18
2022-09-04T08:31:42.934Z,1029.80
2022-09-04T08:32:42.948Z,1029.52
2022-09-04T08:33:42.951Z,1028.70
2022-09-04T08:34:42.951Z,1027.57
2022-09-04T08:35:42.963Z,1023.95
2022-09-04T08:36:42.969Z,1019.52
2022-09-04T08:37:42.975Z,1018.64
2022-09-04T08:38:42.983Z,1018.65
2022-09-04T08:39:43.096Z,1018.65
2022-09-04T08:40:42.996Z,1018.67
2022-09-04T08:41:43.000Z,1018.73
2022-09-04T08:42:43.010Z,1018.79
2022-09-04T08:43:43.014Z,1018.97
2022-09-04T08:44:43.025Z,1020.82
2022-09-04T08:45:43.027Z,1021.95
2022-09-04T08:46:43.090Z,1022.05
2022-09-04T08:47:43.041Z,1022.62
2022-09-04T08:48:43.055Z,1022.98
2022-09-04T08:49:43.058Z,1024.14
2022-09-04T08:50:43.072Z,1025.44
2022-09-04T08:51:43.076Z,1024.74
2022-09-04T08:52:43.080Z,1023.71
2022-09-04T08:53:43.091Z,1023.27
2022-09-04T08:54:43.105Z,1022.92
2022-09-04T08:55:43.111Z,1023.01
2022-09-04T08:56:43.121Z,1022.69
2022-09-04T08:57:43.123Z,1021.82
2022-09-04T08:58:47.714Z,1021.12
2022-09-04T08:59:43.147Z,1020.86
2022-09-04T09:00:43.159Z,1020.73
2022-09-04T09:01:43.190Z,1020.38
2022-09-04T09:02:43.197Z,1020.19
2022-09-04T09:03:43.199Z,1019.93
2022-09-04T09:04:43.204Z,1019.58
2022-09-04T09:05:43.219Z,1019.45
2022-09-04T09:06:43.221Z,1019.36
2022-09-04T09:07:43.233Z,1019.39
2022-09-04T09:08:43.259Z,1019.32
2022-09-04T09:09:43.261Z,1019.36
2022-09-04T09:10:43.269Z,1019.33
2022-09-04T09:11:43.285Z,1019.32
2022-09-04T09:12:43.296Z,1019.25
2022-09-04T09:13:43.315Z,1019.36
2022-09-04T09:14:43.324Z,1019.40
2022-09-04T09:15:43.335Z,1019.38
2022-09-04T09:16:43.447Z,1019.45
2022-09-04T09:17:43.367Z,1019.46
2022-09-04T09:18:43.377Z,1019.41
2022-09-04T09:19:43.396Z,1019.47
2022-09-04T09:20:43.408Z,1019.50
2022-09-04T09:21:43.423Z,1019.55
2022-09-04T09:22:43.439Z,1019.53
2022-09-04T09:23:43.457Z,1019.55
2022-09-04T09:24:43.462Z,1019.57
2022-09-04T09:25:44.121Z,1019.59
2022-09-04T09:26:43.499Z,1019.63
2022-09-04T09:27:43.516Z,1019.61
2022-09-04T09:28:43.527Z,1019.66
2022-09-04T09:29:43.547Z,1019.71
2022-09-04T09:30:43.630Z,1019.67
2022-09-04T09:31:43.579Z,1019.70
2022-09-04T09:32:43.593Z,1019.74
2022-09-04T09:33:43.614Z,1019.75
2022-09-04T09:34:43.629Z,1019.79
2022-09-04T09:35:43.646Z,1019.73
2022-09-04T09:36:43.657Z,1019.79
2022-09-04T09:37:43.679Z,1019.76
2022-09-04T09:38:43.694Z,1018.48
2022-09-04T09:39:43.818Z,1018.47
2022-09-04T09:40:43.730Z,1018.45
2022-09-04T09:41:43.753Z,1018.48
2022-09-04T09:42:43.764Z,1018.49
2022-09-04T09:43:43.784Z,1018.45
2022-09-04T09:44:43.795Z,1018.42
2022-09-04T09:45:43.849Z,1018.44
2022-09-04T09:46:43.830Z,1018.53
2022-09-04T09:47:43.844Z,1018.50
2022-09-04T09:48:43.863Z,1018.51
2022-09-04T09:49:43.884Z,1018.48
2022-09-04T09:50:43.893Z,1018.53
2022-09-04T09:51:43.906Z,1018.52
2022-09-04T09:52:43.922Z,1018.51
2022-09-04T09:53:47.184Z,1018.53
2022-09-04T09:54:43.952Z,1018.47
2022-09-04T09:55:43.971Z,1018.44
2022-09-04T09:56:46.657Z,1018.38
2022-09-04T09:57:43.999Z,1018.39
2022-09-04T09:58:44.057Z,1018.41
2022-09-04T09:59:44.033Z,1018.47
2022-09-04T10:00:44.041Z,1018.39
2022-09-04T10:01:44.130Z,1018.41
2022-09-04T10:02:44.139Z,1018.44
2022-09-04T10:03:44.078Z,1018.41
2022-09-04T10:04:44.088Z,1018.43
2022-09-04T10:05:44.103Z,1018.40
2022-09-04T10:06:44.124Z,1018.35
2022-09-04T10:07:44.136Z,1018.33
2022-09-04T10:08:44.143Z,1018.35
2022-09-04T10:09:44.158Z,1018.41
2022-09-04T10:10:44.156Z,1018.41
2022-09-04T10:11:44.176Z,1018.41
2022-09-04T10:12:44.181Z,1018.37
2022-09-04T10:13:44.206Z,1018.34
2022-09-04T10:14:44.215Z,1018.34
2022-09-04T10:15:44.224Z,1018.35
2022-09-04T10:16:44.383Z,1018.38
2022-09-04T10:17:44.246Z,1018.34
2022-09-04T10:18:44.252Z,1018.39
2022-09-04T10:19:44.266Z,1018.34
2022-09-04T10:20:44.275Z,1018.35
2022-09-04T10:21:44.283Z,1018.36
2022-09-04T10:22:44.298Z,1018.28
2022-09-04T10:23:44.315Z,1018.33
2022-09-04T10:24:44.319Z,1018.40
2022-09-04T10:25:44.332Z,1018.43
2022-09-04T10:26:44.337Z,1018.37
2022-09-04T10:27:44.350Z,1018.35
2022-09-04T10:28:44.383Z,1018.33
2022-09-04T10:29:44.370Z,1018.38
2022-09-04T10:30:44.450Z,1018.34
2022-09-04T10:31:44.390Z,1018.34
2022-09-04T10:32:44.421Z,1018.32
2022-09-04T10:33:44.457Z,1018.37
2022-09-04T10:34:44.443Z,1018.39
2022-09-04T10:35:44.430Z,1018.38
2022-09-04T10:36:44.507Z,1018.38
2022-09-04T10:37:44.463Z,1018.40
2022-09-04T10:38:44.459Z,1018.39
2022-09-04T10:39:44.588Z,1018.40
2022-09-04T10:40:47.065Z,1018.41
2022-09-04T10:41:44.480Z,1018.45
2022-09-04T10:42:44.491Z,1018.42
2022-09-04T10:43:44.497Z,1018.44
2022-09-04T10:44:44.507Z,1018.48
2022-09-04T10:45:44.647Z,1018.49
2022-09-04T10:46:44.527Z,1018.51
2022-09-04T10:47:44.534Z,1018.49
2022-09-04T10:48:44.541Z,1018.48
2022-09-04T10:49:44.555Z,1018.46
2022-09-04T10:50:44.560Z,1018.49
2022-09-04T10:51:44.569Z,1018.47
2022-09-04T10:52:44.576Z,1018.50
2022-09-04T10:53:44.587Z,1018.47
2022-09-04T10:54:44.595Z,1018.50
2022-09-04T10:55:44.604Z,1018.48
2022-09-04T10:56:44.615Z,1018.49
2022-09-04T10:57:44.625Z,1018.52
2022-09-04T10:58:44.632Z,1018.54
2022-09-04T10:59:44.636Z,1018.48
2022-09-04T11:00:44.702Z,1018.52
2022-09-04T11:01:44.654Z,1018.49
2022-09-04T11:02:44.748Z,1018.48
2022-09-04T11:03:44.671Z,1018.50
2022-09-04T11:04:44.679Z,1018.47
2022-09-04T11:05:44.690Z,1018.46
2022-09-04T11:06:44.698Z,1018.50
2022-09-04T11:07:44.701Z,1018.46
2022-09-04T11:08:44.712Z,1018.50
2022-09-04T11:09:44.729Z,1018.51
2022-09-04T11:10:44.740Z,1018.49
2022-09-04T11:11:44.737Z,1018.47
2022-09-04T11:12:44.746Z,1018.51
2022-09-04T11:13:49.337Z,1018.46
2022-09-04T11:14:44.761Z,1018.45
2022-09-04T11:15:44.771Z,1018.46
2022-09-04T11:16:44.850Z,1018.52
2022-09-04T11:17:44.788Z,1018.50
2022-09-04T11:18:44.792Z,1018.49
2022-09-04T11:19:44.801Z,1018.47
2022-09-04T11:20:44.808Z,1018.45
2022-09-04T11:21:44.819Z,1018.46
2022-09-04T11:22:44.824Z,1018.47
2022-09-04T11:23:44.831Z,1018.49
2022-09-04T11:24:44.840Z,1018.50
2022-09-04T11:25:44.848Z,1018.50
2022-09-04T11:26:44.857Z,1018.53
2022-09-04T11:27:44.861Z,1018.53
2022-09-04T11:28:44.873Z,1018.48
2022-09-04T11:29:44.882Z,1018.47
2022-09-04T11:30:48.182Z,1018.40
2022-09-04T11:31:44.942Z,1018.46
2022-09-04T11:32:44.902Z,1018.44
2022-09-04T11:33:44.912Z,1018.43
2022-09-04T11:34:44.925Z,1018.46
2022-09-04T11:35:44.928Z,1018.42
2022-09-04T11:36:44.939Z,1018.44
2022-09-04T11:37:44.953Z,1018.41
2022-09-04T11:38:44.953Z,1018.39
2022-09-04T11:39:45.077Z,1018.36
2022-09-04T11:40:44.970Z,1018.41
2022-09-04T11:41:44.980Z,1018.44
2022-09-04T11:42:44.981Z,1018.40
2022-09-04T11:43:44.999Z,1018.32
2022-09-04T11:44:44.997Z,1018.35
2022-09-04T11:45:45.057Z,1018.39
2022-09-04T11:46:45.016Z,1018.37
2022-09-04T11:47:45.027Z,1018.37
2022-09-04T11:48:45.119Z,1018.30
2022-09-04T11:49:45.048Z,1018.25
2022-09-04T11:50:45.048Z,1018.20
2022-09-04T11:51:45.056Z,1018.21
2022-09-04T11:52:45.062Z,1018.24
2022-09-04T11:53:45.073Z,1018.44
2022-09-04T11:54:45.081Z,1018.60
2022-09-04T11:55:48.316Z,1018.60
2022-09-04T11:56:45.098Z,1018.67
2022-09-04T11:57:45.106Z,1018.70
2022-09-04T11:58:45.115Z,1018.70
2022-09-04T11:59:45.126Z,1018.70
2022-09-04T12:00:45.137Z,1018.70
2022-09-04T12:01:47.847Z,1018.74
2022-09-04T12:02:45.156Z,1018.69
2022-09-04T12:03:45.194Z,1018.51
2022-09-04T12:04:45.172Z,1018.56
2022-09-04T12:05:45.183Z,1018.70